Time;durP1;ratioP1;P1;durP2;ratioP2;P2;SDS_P1;SDS_P2;PMS_P1;PMS_P2;Temp;Humidity;BMP_temperature;BMP_pressure;BME280_temperature;BME280_humidity;BME280_pressure;Samples;Min_cycle;Max_cycle;Signal;HPM_P1;HPM_P2
2022/07/13 02:07:55;;;;;;;;;4.33;4.33;;;;;;;;6451200;39;52137;-59
2022/07/13 02:14:02;;;;;;;;;4.67;4.67;;;;;;;;6490155;47;8919;-60
2022/07/13 02:20:06;;;;;;;;;7.00;5.67;;;;;;;;6490832;39;8960;-59
2022/07/13 02:26:10;;;;;;;;;4.00;4.00;;;;;;;;6490437;39;8847;-60
2022/07/13 02:32:18;;;;;;;;;5.33;5.33;;;;;;;;6489772;47;8928;-60
2022/07/13 02:38:21;;;;;;;;;4.00;4.00;;;;;;;;6491640;31;8920;-59
2022/07/13 02:44:23;;;;;;;;;3.67;3.67;;;;;;;;6489956;39;8841;-60
2022/07/13 02:50:25;;;;;;;;;6.00;6.00;;;;;;;;6490962;39;8804;-59
2022/07/13 02:56:28;;;;;;;;;2.00;2.00;;;;;;;;6490713;46;8923;-60
2022/07/13 03:02:31;;;;;;;;;7.67;7.67;;;;;;;;6492217;46;9026;-60
2022/07/13 03:08:37;;;;;;;;;8.33;6.00;;;;;;;;6492682;39;9623;-59
2022/07/13 03:14:42;;;;;;;;;4.00;4.00;;;;;;;;6491427;39;8919;-59
2022/07/13 03:20:45;;;;;;;;;7.00;6.00;;;;;;;;6492104;46;8880;-60
2022/07/13 03:26:48;;;;;;;;;6.00;6.00;;;;;;;;6491703;39;8946;-61
2022/07/13 03:32:51;;;;;;;;;6.33;6.33;;;;;;;;6492279;39;8857;-60
2022/07/13 03:38:55;;;;;;;;;7.00;7.00;;;;;;;;6491638;46;8852;-60
2022/07/13 03:44:59;;;;;;;;;12.00;8.00;;;;;;;;6491545;46;8873;-60
2022/07/13 03:51:05;;;;;;;;;10.33;7.67;;;;;;;;6492109;46;8891;-59
2022/07/13 03:57:08;;;;;;;;;7.00;7.00;;;;;;;;6491464;46;8889;-60
2022/07/13 04:03:14;;;;;;;;;6.67;5.33;;;;;;;;6473225;39;9109;-59
2022/07/13 04:09:19;;;;;;;;;5.67;5.67;;;;;;;;6489372;39;8943;-58
2022/07/13 04:15:23;;;;;;;;;6.00;6.00;;;;;;;;6488650;46;8944;-59
2022/07/13 04:21:30;;;;;;;;;6.33;5.33;;;;;;;;6489916;31;8907;-58
2022/07/13 04:27:32;;;;;;;;;8.00;8.00;;;;;;;;6488307;39;8958;-60
2022/07/13 04:33:36;;;;;;;;;6.33;6.33;;;;;;;;6486964;31;8947;-59
2022/07/13 04:39:45;;;;;;;;;7.00;7.00;;;;;;;;6488856;39;8998;-57
2022/07/13 04:45:49;;;;;;;;;7.00;7.00;;;;;;;;6525151;36;8861;-57
2022/07/13 04:51:52;;;;;;;;;8.33;8.33;;;;;;;;6488441;31;9551;-58
2022/07/13 04:57:56;;;;;;;;;7.00;7.00;;;;;;;;6487559;39;8888;-59
2022/07/13 05:04:01;;;;;;;;;6.67;6.67;;;;;;;;6487058;39;8962;-59
2022/07/13 05:10:11;;;;;;;;;10.67;9.00;;;;;;;;6488695;39;8913;-59
2022/07/13 05:16:23;;;;;;;;;9.33;8.00;;;;;;;;6488114;31;9020;-57
2022/07/13 05:22:28;;;;;;;;;5.00;4.00;;;;;;;;6487709;46;8862;-59
2022/07/13 05:28:32;;;;;;;;;6.00;6.00;;;;;;;;6488083;39;8947;-60
2022/07/13 05:34:36;;;;;;;;;6.67;6.00;;;;;;;;6488323;31;8961;-59
2022/07/13 05:40:41;;;;;;;;;5.00;5.00;;;;;;;;6487804;39;8873;-57
2022/07/13 05:46:49;;;;;;;;;5.33;5.00;;;;;;;;6488304;39;8807;-58
2022/07/13 05:52:54;;;;;;;;;7.00;7.00;;;;;;;;6488571;31;8920;-59
2022/07/13 05:58:59;;;;;;;;;6.33;6.33;;;;;;;;6487183;46;8887;-58
2022/07/13 06:05:07;;;;;;;;;13.00;10.67;;;;;;;;6488159;47;8944;-58
2022/07/13 06:11:15;;;;;;;;;5.33;5.33;;;;;;;;6488241;31;8910;-60
2022/07/13 06:17:21;;;;;;;;;9.00;9.00;;;;;;;;6487486;39;8899;-58
2022/07/13 06:23:25;;;;;;;;;6.33;6.33;;;;;;;;6485674;31;8883;-58
2022/07/13 06:29:30;;;;;;;;;8.33;8.33;;;;;;;;6486816;39;8933;-59
2022/07/13 06:35:34;;;;;;;;;11.00;11.00;;;;;;;;6488539;31;8907;-58
2022/07/13 06:41:43;;;;;;;;;6.67;6.67;;;;;;;;6487867;46;8966;-58
2022/07/13 06:47:45;;;;;;;;;5.75;5.75;;;;;;;;6487326;46;8863;-57
2022/07/13 06:53:48;;;;;;;;;21.75;19.25;;;;;;;;6487277;46;8917;-57
2022/07/13 06:59:51;;;;;;;;;7.00;6.50;;;;;;;;6487952;39;8914;-58
2022/07/13 07:05:55;;;;;;;;;4.50;4.50;;;;;;;;6486483;39;8917;-58
2022/07/13 07:12:00;;;;;;;;;6.25;5.00;;;;;;;;6485799;39;9565;-59
2022/07/13 07:18:04;;;;;;;;;5.00;5.00;;;;;;;;6487127;31;8896;-58
2022/07/13 07:24:12;;;;;;;;;8.50;8.25;;;;;;;;6487871;39;8957;-58
2022/07/13 07:30:20;;;;;;;;;5.25;4.25;;;;;;;;6488521;31;8899;-58
2022/07/13 07:36:25;;;;;;;;;13.50;11.50;;;;;;;;6487460;39;8909;-56
2022/07/13 07:42:32;;;;;;;;;6.00;5.00;;;;;;;;6486548;31;9633;-58
2022/07/13 07:48:36;;;;;;;;;5.00;5.00;;;;;;;;6487371;39;8877;-58
2022/07/13 07:54:43;;;;;;;;;8.25;8.25;;;;;;;;6488300;39;8943;-57
2022/07/13 08:00:54;;;;;;;;;6.50;6.50;;;;;;;;6488068;39;8883;-58
2022/07/13 08:06:58;;;;;;;;;7.25;7.25;;;;;;;;6486234;39;9050;-58
2022/07/13 08:13:04;;;;;;;;;6.75;6.75;;;;;;;;6486243;39;9568;-56
2022/07/13 08:19:08;;;;;;;;;7.00;6.00;;;;;;;;6485964;39;9519;-57
2022/07/13 08:25:33;;;;;;;;;6.50;6.50;;;;;;;;6487947;39;9655;-59
2022/07/13 08:31:35;;;;;;;;;3.25;3.25;;;;;;;;6488784;39;8930;-57
2022/07/13 08:44:01;;;;;;;;;5.25;5.25;;;;;;;;6485612;39;9519;-59
2022/07/13 08:50:09;;;;;;;;;5.75;4.50;;;;;;;;6486501;31;8912;-60
2022/07/13 08:56:12;;;;;;;;;3.00;3.00;;;;;;;;6486585;31;9572;-58
2022/07/13 09:02:14;;;;;;;;;4.25;4.25;;;;;;;;6487793;39;9549;-58
2022/07/13 09:08:21;;;;;;;;;4.00;4.00;;;;;;;;6487839;39;8935;-58
2022/07/13 09:14:24;;;;;;;;;3.75;3.75;;;;;;;;6488186;31;9056;-58
2022/07/13 09:20:29;;;;;;;;;4.00;4.00;;;;;;;;6487432;39;8855;-58
2022/07/13 09:26:43;;;;;;;;;5.00;3.75;;;;;;;;6487428;39;8904;-58
2022/07/13 09:32:45;;;;;;;;;4.00;4.00;;;;;;;;6487331;46;8915;-58
2022/07/13 09:38:51;;;;;;;;;1.50;1.50;;;;;;;;6485759;46;8910;-57
2022/07/13 09:51:27;;;;;;;;;3.25;3.25;;;;;;;;6486446;46;8888;-58
2022/07/13 09:57:34;;;;;;;;;3.00;3.00;;;;;;;;6486951;46;8917;-58
2022/07/13 10:03:41;;;;;;;;;7.00;7.00;;;;;;;;6487901;31;8995;-59
2022/07/13 10:09:48;;;;;;;;;10.50;9.25;;;;;;;;6487461;39;8978;-58
2022/07/13 10:15:54;;;;;;;;;10.25;10.25;;;;;;;;6306712;31;10000177;-58
2022/07/13 10:22:34;;;;;;;;;3.00;3.00;;;;;;;;6486670;39;8855;-58
2022/07/13 10:28:39;;;;;;;;;3.50;3.50;;;;;;;;6484728;47;8915;-57
2022/07/13 10:34:53;;;;;;;;;1.00;1.00;;;;;;;;6486605;39;8892;-58
2022/07/13 10:41:19;;;;;;;;;31.75;27.75;;;;;;;;6486489;47;8967;-57
2022/07/13 10:47:46;;;;;;;;;3.00;3.00;;;;;;;;6485633;31;8867;-59
2022/07/13 10:53:52;;;;;;;;;5.00;2.00;;;;;;;;6485619;39;9015;-58
2022/07/13 11:00:03;;;;;;;;;3.50;3.00;;;;;;;;6485426;39;9479;-58
2022/07/13 11:06:23;;;;;;;;;3.00;3.00;;;;;;;;6485378;39;9635;-59
2022/07/13 11:12:25;;;;;;;;;4.00;4.00;;;;;;;;6487416;31;9535;-59
2022/07/13 11:18:35;;;;;;;;;4.75;4.75;;;;;;;;6485423;39;8889;-58
2022/07/13 11:31:15;;;;;;;;;2.25;1.50;;;;;;;;6487090;39;8921;-58
2022/07/13 11:37:24;;;;;;;;;3.50;2.00;;;;;;;;6488204;31;8973;-57
2022/07/13 11:43:26;;;;;;;;;3.00;3.00;;;;;;;;6486688;31;8864;-58
2022/07/13 11:49:43;;;;;;;;;2.50;2.50;;;;;;;;6487421;39;8891;-59
2022/07/13 11:55:47;;;;;;;;;6.50;6.25;;;;;;;;6488041;46;8940;-58
2022/07/13 12:01:51;;;;;;;;;14.25;14.25;;;;;;;;6486786;39;8900;-58
2022/07/13 12:08:05;;;;;;;;;26.50;23.25;;;;;;;;6534462;31;8900;-59
2022/07/13 12:14:12;;;;;;;;;21.00;16.50;;;;;;;;6486651;39;8954;-59
2022/07/13 12:20:19;;;;;;;;;7.00;6.75;;;;;;;;6487677;39;8908;-58
2022/07/13 12:26:21;;;;;;;;;4.00;4.00;;;;;;;;6488513;31;8856;-57
2022/07/13 12:32:25;;;;;;;;;4.00;4.00;;;;;;;;6487248;39;8927;-58
2022/07/13 12:38:30;;;;;;;;;24.00;24.00;;;;;;;;6488213;39;8954;-57
2022/07/13 12:44:33;;;;;;;;;5.00;5.00;;;;;;;;6486801;39;9687;-58
2022/07/13 12:50:36;;;;;;;;;3.50;3.50;;;;;;;;6486258;31;8967;-58
2022/07/13 12:56:52;;;;;;;;;4.25;4.25;;;;;;;;6487466;39;8983;-57
2022/07/13 13:02:59;;;;;;;;;3.00;3.00;;;;;;;;6487451;39;8983;-59
2022/07/13 13:09:10;;;;;;;;;2.50;2.50;;;;;;;;6487549;39;8904;-58
2022/07/13 13:15:15;;;;;;;;;3.50;3.50;;;;;;;;6487420;39;8979;-57
2022/07/13 13:21:18;;;;;;;;;14.50;13.50;;;;;;;;6487909;31;8895;-58
2022/07/13 13:27:27;;;;;;;;;4.50;4.50;;;;;;;;6486818;46;8905;-58
2022/07/13 13:33:49;;;;;;;;;3.00;3.00;;;;;;;;6486164;31;8909;-57
2022/07/13 13:40:13;;;;;;;;;3.50;3.50;;;;;;;;6486736;39;8970;-58
2022/07/13 13:46:18;;;;;;;;;2.00;2.00;;;;;;;;6487081;39;8923;-58
2022/07/13 13:52:23;;;;;;;;;1.25;1.25;;;;;;;;6487325;46;8930;-58
2022/07/13 13:58:25;;;;;;;;;2.00;2.00;;;;;;;;6487841;46;8973;-57
2022/07/13 14:04:30;;;;;;;;;3.75;2.00;;;;;;;;6486876;31;8958;-58
2022/07/13 14:10:35;;;;;;;;;1.00;1.00;;;;;;;;6487423;39;8864;-59
2022/07/13 14:16:37;;;;;;;;;2.50;2.50;;;;;;;;6486176;39;8899;-58
2022/07/13 14:22:40;;;;;;;;;2.00;2.00;;;;;;;;6486637;31;9487;-58
2022/07/13 14:28:44;;;;;;;;;2.00;2.00;;;;;;;;6485618;47;8895;-57
2022/07/13 14:34:46;;;;;;;;;2.00;1.33;;;;;;;;6486166;31;8869;-57
2022/07/13 14:40:48;;;;;;;;;3.75;3.75;;;;;;;;6486152;39;8895;-57
2022/07/13 14:46:59;;;;;;;;;2.00;2.00;;;;;;;;6486530;39;8881;-59
2022/07/13 14:53:19;;;;;;;;;3.00;2.25;;;;;;;;6487069;31;8872;-58
2022/07/13 14:59:23;;;;;;;;;2.75;2.75;;;;;;;;6487131;46;9017;-57
2022/07/13 15:05:32;;;;;;;;;2.75;2.75;;;;;;;;6487355;46;9005;-59
2022/07/13 15:11:35;;;;;;;;;4.00;4.00;;;;;;;;6487350;39;8919;-58
2022/07/13 15:17:37;;;;;;;;;1.50;1.50;;;;;;;;6487573;46;8919;-59
2022/07/13 15:23:59;;;;;;;;;3.00;3.00;;;;;;;;6488657;46;8960;-59
2022/07/13 15:30:04;;;;;;;;;3.00;3.00;;;;;;;;6488977;39;8895;-59
2022/07/13 15:36:07;;;;;;;;;2.25;2.25;;;;;;;;6488564;46;9030;-57
2022/07/13 15:42:09;;;;;;;;;3.50;3.00;;;;;;;;6488428;31;8887;-59
2022/07/13 15:48:13;;;;;;;;;2.75;2.75;;;;;;;;6488421;46;8959;-59
2022/07/13 15:54:18;;;;;;;;;4.50;3.75;;;;;;;;6487868;46;9096;-59
2022/07/13 16:00:22;;;;;;;;;3.25;3.25;;;;;;;;6487517;39;8917;-58
2022/07/13 16:06:25;;;;;;;;;3.75;3.75;;;;;;;;6488240;39;9130;-59
2022/07/13 16:12:27;;;;;;;;;2.00;2.00;;;;;;;;6487955;39;8888;-58
2022/07/13 16:18:32;;;;;;;;;3.00;3.00;;;;;;;;6487829;39;8916;-58
2022/07/13 16:24:35;;;;;;;;;3.75;3.75;;;;;;;;6487699;39;8988;-58
2022/07/13 16:30:37;;;;;;;;;3.75;3.75;;;;;;;;6488211;39;8884;-57
2022/07/13 16:36:39;;;;;;;;;4.75;4.75;;;;;;;;6488763;31;8943;-58
2022/07/13 16:42:44;;;;;;;;;19.50;17.25;;;;;;;;6487617;31;8851;-58
2022/07/13 16:48:48;;;;;;;;;34.75;32.75;;;;;;;;6487994;39;8979;-58
2022/07/13 16:54:53;;;;;;;;;46.67;42.00;;;;;;;;6487822;31;8915;-58
2022/07/13 17:00:59;;;;;;;;;40.25;33.25;;;;;;;;6487539;46;8853;-58
2022/07/13 17:07:05;;;;;;;;;19.50;19.50;;;;;;;;6487408;46;8955;-59
2022/07/13 17:13:08;;;;;;;;;4.50;4.50;;;;;;;;6486576;39;8884;-58
2022/07/13 17:19:13;;;;;;;;;5.00;5.00;;;;;;;;6487371;46;8871;-59
2022/07/13 17:25:18;;;;;;;;;7.00;5.50;;;;;;;;6486417;46;8970;-58
2022/07/13 17:31:22;;;;;;;;;3.75;3.75;;;;;;;;6486734;46;8903;-58
2022/07/13 17:37:25;;;;;;;;;5.00;5.00;;;;;;;;6487723;39;8900;-58
2022/07/13 17:43:28;;;;;;;;;6.00;6.00;;;;;;;;6487529;39;8929;-59
2022/07/13 17:49:30;;;;;;;;;6.25;6.25;;;;;;;;6487932;31;8868;-58
2022/07/13 17:55:32;;;;;;;;;6.00;6.00;;;;;;;;6486856;31;8954;-57
2022/07/13 18:01:34;;;;;;;;;5.25;5.25;;;;;;;;6487212;39;8889;-56
2022/07/13 18:07:36;;;;;;;;;4.50;4.00;;;;;;;;6487162;46;8997;-59
2022/07/13 18:13:39;;;;;;;;;4.50;4.50;;;;;;;;6487166;39;8900;-58
2022/07/13 18:19:42;;;;;;;;;5.25;5.25;;;;;;;;6488308;39;9543;-60
2022/07/13 18:25:45;;;;;;;;;8.00;7.00;;;;;;;;6486946;31;8876;-58
2022/07/13 18:31:48;;;;;;;;;8.00;7.00;;;;;;;;6488858;46;8943;-59
2022/07/13 18:37:52;;;;;;;;;6.75;6.75;;;;;;;;6489223;39;9700;-59
2022/07/13 18:43:55;;;;;;;;;6.00;6.00;;;;;;;;6488384;39;8871;-59
2022/07/13 18:49:57;;;;;;;;;9.25;7.50;;;;;;;;6490005;39;8975;-58
2022/07/13 18:56:01;;;;;;;;;9.00;9.00;;;;;;;;6487034;31;9018;-59
2022/07/13 19:02:07;;;;;;;;;11.50;11.25;;;;;;;;6488503;46;8860;-58
2022/07/13 19:08:11;;;;;;;;;12.75;11.50;;;;;;;;6487991;31;8954;-59
2022/07/13 19:14:15;;;;;;;;;12.25;12.25;;;;;;;;6487568;39;9548;-59
2022/07/13 19:20:21;;;;;;;;;9.75;9.75;;;;;;;;6488517;46;8887;-58
2022/07/13 19:32:45;;;;;;;;;14.75;12.75;;;;;;;;6488562;46;8847;-58
2022/07/13 19:38:49;;;;;;;;;14.25;14.25;;;;;;;;6487662;46;8909;-58
2022/07/13 19:44:51;;;;;;;;;15.50;15.50;;;;;;;;6488766;39;8898;-63
2022/07/13 19:50:54;;;;;;;;;12.00;12.00;;;;;;;;6488882;39;8923;-57
2022/07/13 19:56:56;;;;;;;;;12.00;12.00;;;;;;;;6487693;39;8989;-59
2022/07/13 20:02:58;;;;;;;;;16.00;14.50;;;;;;;;6489012;39;9542;-59
2022/07/13 20:09:03;;;;;;;;;15.50;13.75;;;;;;;;6488194;31;8954;-59
2022/07/13 20:15:06;;;;;;;;;13.75;11.25;;;;;;;;6488280;31;8872;-59
2022/07/13 20:21:09;;;;;;;;;16.00;16.00;;;;;;;;6488252;46;8911;-57
2022/07/13 20:27:11;;;;;;;;;13.25;13.00;;;;;;;;6487998;39;8912;-62
2022/07/13 20:33:18;;;;;;;;;14.25;13.50;;;;;;;;6488938;39;8978;-58
2022/07/13 20:39:21;;;;;;;;;8.50;8.50;;;;;;;;6488224;39;8873;-57
2022/07/13 20:45:26;;;;;;;;;15.00;14.00;;;;;;;;6487541;31;8868;-57
2022/07/13 20:51:29;;;;;;;;;14.00;12.50;;;;;;;;6488162;39;8963;-59
2022/07/13 20:57:33;;;;;;;;;18.00;13.75;;;;;;;;6487231;39;8995;-59
2022/07/13 21:03:36;;;;;;;;;12.25;11.50;;;;;;;;6487652;46;8889;-58
2022/07/13 21:09:39;;;;;;;;;15.75;12.25;;;;;;;;6487467;31;8963;-58
2022/07/13 21:15:41;;;;;;;;;12.50;12.50;;;;;;;;6487810;46;8966;-57
2022/07/13 21:21:45;;;;;;;;;13.75;13.75;;;;;;;;6487546;46;8875;-57
2022/07/13 21:27:52;;;;;;;;;12.00;12.00;;;;;;;;6488128;31;8877;-58
2022/07/13 21:33:58;;;;;;;;;13.75;12.75;;;;;;;;6488749;39;8907;-60
2022/07/13 21:40:01;;;;;;;;;15.00;13.50;;;;;;;;6487045;31;8933;-58
2022/07/13 21:46:07;;;;;;;;;12.50;12.50;;;;;;;;6487859;39;9477;-58
2022/07/13 21:52:10;;;;;;;;;11.25;10.50;;;;;;;;6487074;46;8857;-58
2022/07/13 21:58:15;;;;;;;;;11.00;10.00;;;;;;;;6486816;31;8969;-58
2022/07/13 22:04:17;;;;;;;;;13.67;13.00;;;;;;;;6487033;39;8942;-58
2022/07/13 22:10:58;;;;;;;;;17.25;16.25;;;;;;;;6486738;46;8914;-59
2022/07/13 22:17:38;;;;;;;;;17.75;15.75;;;;;;;;6488034;39;8901;-59
2022/07/13 22:24:18;;;;;;;;;19.00;16.50;;;;;;;;6486833;47;8867;-58
2022/07/13 22:30:58;;;;;;;;;14.50;13.50;;;;;;;;6488019;31;9537;-58
2022/07/13 22:37:39;;;;;;;;;14.75;14.75;;;;;;;;6487208;31;9073;-58
2022/07/13 22:44:18;;;;;;;;;14.33;14.33;;;;;;;;6487414;39;8927;-59
2022/07/13 22:50:58;;;;;;;;;14.00;14.00;;;;;;;;6486468;39;8867;-58
2022/07/13 22:57:38;;;;;;;;;19.00;18.00;;;;;;;;6486895;31;8963;-57
2022/07/13 23:04:18;;;;;;;;;18.00;16.00;;;;;;;;6485352;39;8978;-58
2022/07/13 23:10:57;;;;;;;;;14.00;13.67;;;;;;;;6485787;39;8972;-58
2022/07/13 23:17:37;;;;;;;;;18.00;16.00;;;;;;;;6488592;39;8907;-59
2022/07/13 23:24:17;;;;;;;;;14.67;14.00;;;;;;;;6488409;39;8916;-58
2022/07/13 23:31:01;;;;;;;;;11.00;11.00;;;;;;;;6489944;31;8843;-58
2022/07/13 23:37:10;;;;;;;;;14.33;14.33;;;;;;;;6487691;31;8909;-59
2022/07/13 23:43:13;;;;;;;;;13.67;9.67;;;;;;;;6488474;39;8918;-58
2022/07/13 23:49:16;;;;;;;;;12.67;12.67;;;;;;;;6488043;46;8911;-57
2022/07/13 23:55:19;;;;;;;;;9.33;9.33;;;;;;;;6487820;39;8915;-58
